sensor_id;sensor_type;location;lat;lon;timestamp;temperature;humidity
35111;DHT22;21290;50.158;8.658;2022-10-31T00:01:52;10.90;99.90
35111;DHT22;21290;50.158;8.658;2022-10-31T00:04:18;10.90;99.90
35111;DHT22;21290;50.158;8.658;2022-10-31T00:06:45;10.90;99.90
35111;DHT22;21290;50.158;8.658;2022-10-31T00:09:11;10.90;99.90
35111;DHT22;21290;50.158;8.658;2022-10-31T00:11:38;10.90;99.90
35111;DHT22;21290;50.158;8.658;2022-10-31T00:14:05;10.80;99.90
35111;DHT22;21290;50.158;8.658;2022-10-31T00:16:31;10.80;99.90
35111;DHT22;21290;50.158;8.658;2022-10-31T00:18:59;10.80;99.90
35111;DHT22;21290;50.158;8.658;2022-10-31T00:21:25;10.80;99.90
35111;DHT22;21290;50.158;8.658;2022-10-31T00:23:53;10.80;99.90
35111;DHT22;21290;50.158;8.658;2022-10-31T00:26:19;10.70;99.90
35111;DHT22;21290;50.158;8.658;2022-10-31T00:28:46;10.70;99.90
35111;DHT22;21290;50.158;8.658;2022-10-31T00:31:13;10.70;99.90
35111;DHT22;21290;50.158;8.658;2022-10-31T00:33:39;10.70;99.90
35111;DHT22;21290;50.158;8.658;2022-10-31T00:36:07;10.60;99.90
35111;DHT22;21290;50.158;8.658;2022-10-31T00:38:33;10.60;99.90
35111;DHT22;21290;50.158;8.658;2022-10-31T00:41:00;10.60;99.90
35111;DHT22;21290;50.158;8.658;2022-10-31T00:43:26;10.60;99.90
35111;DHT22;21290;50.158;8.658;2022-10-31T00:45:53;10.50;99.90
35111;DHT22;21290;50.158;8.658;2022-10-31T00:48:19;10.60;99.90
35111;DHT22;21290;50.158;8.658;2022-10-31T00:50:46;10.50;99.90
35111;DHT22;21290;50.158;8.658;2022-10-31T00:53:12;10.50;99.90
35111;DHT22;21290;50.158;8.658;2022-10-31T00:55:39;10.50;99.90
35111;DHT22;21290;50.158;8.658;2022-10-31T00:58:05;10.50;99.90
35111;DHT22;21290;50.158;8.658;2022-10-31T01:00:32;10.50;99.90
35111;DHT22;21290;50.158;8.658;2022-10-31T01:02:59;10.50;99.90
35111;DHT22;21290;50.158;8.658;2022-10-31T01:05:26;10.50;99.90
35111;DHT22;21290;50.158;8.658;2022-10-31T01:07:52;10.50;99.90
35111;DHT22;21290;50.158;8.658;2022-10-31T01:10:19;10.50;99.90
35111;DHT22;21290;50.158;8.658;2022-10-31T01:12:46;10.50;99.90
35111;DHT22;21290;50.158;8.658;2022-10-31T01:15:14;10.50;99.90
35111;DHT22;21290;50.158;8.658;2022-10-31T01:17:41;10.50;99.90
35111;DHT22;21290;50.158;8.658;2022-10-31T01:20:08;10.40;99.90
35111;DHT22;21290;50.158;8.658;2022-10-31T01:22:35;10.50;99.90
35111;DHT22;21290;50.158;8.658;2022-10-31T01:25:02;10.50;99.90
35111;DHT22;21290;50.158;8.658;2022-10-31T01:27:28;10.40;99.90
35111;DHT22;21290;50.158;8.658;2022-10-31T01:29:55;10.40;99.90
35111;DHT22;21290;50.158;8.658;2022-10-31T01:32:21;10.40;99.90
35111;DHT22;21290;50.158;8.658;2022-10-31T01:34:48;10.40;99.90
35111;DHT22;21290;50.158;8.658;2022-10-31T01:37:15;10.40;99.90
35111;DHT22;21290;50.158;8.658;2022-10-31T01:39:41;10.40;99.90
35111;DHT22;21290;50.158;8.658;2022-10-31T01:42:10;10.40;99.90
35111;DHT22;21290;50.158;8.658;2022-10-31T01:47:12;10.40;99.90
35111;DHT22;21290;50.158;8.658;2022-10-31T01:49:43;10.40;99.90
35111;DHT22;21290;50.158;8.658;2022-10-31T01:52:25;10.40;99.90
35111;DHT22;21290;50.158;8.658;2022-10-31T01:54:58;10.40;99.90
35111;DHT22;21290;50.158;8.658;2022-10-31T01:57:26;10.40;99.90
35111;DHT22;21290;50.158;8.658;2022-10-31T01:59:54;10.40;99.90
35111;DHT22;21290;50.158;8.658;2022-10-31T02:02:21;10.40;99.90
35111;DHT22;21290;50.158;8.658;2022-10-31T02:04:47;10.40;99.90
35111;DHT22;21290;50.158;8.658;2022-10-31T02:07:16;10.40;99.90
35111;DHT22;21290;50.158;8.658;2022-10-31T02:09:43;10.30;99.90
35111;DHT22;21290;50.158;8.658;2022-10-31T02:12:11;10.40;99.90
35111;DHT22;21290;50.158;8.658;2022-10-31T02:14:38;10.30;99.90
35111;DHT22;21290;50.158;8.658;2022-10-31T02:17:05;10.30;99.90
35111;DHT22;21290;50.158;8.658;2022-10-31T02:19:40;10.30;99.90
35111;DHT22;21290;50.158;8.658;2022-10-31T02:24:52;10.20;99.90
35111;DHT22;21290;50.158;8.658;2022-10-31T02:30:09;10.20;99.90
35111;DHT22;21290;50.158;8.658;2022-10-31T02:37:34;10.30;99.90
35111;DHT22;21290;50.158;8.658;2022-10-31T02:42:33;10.30;99.90
35111;DHT22;21290;50.158;8.658;2022-10-31T02:45:14;10.30;99.90
35111;DHT22;21290;50.158;8.658;2022-10-31T02:47:44;10.30;99.90
35111;DHT22;21290;50.158;8.658;2022-10-31T02:50:22;10.30;99.90
35111;DHT22;21290;50.158;8.658;2022-10-31T02:52:50;10.40;99.90
35111;DHT22;21290;50.158;8.658;2022-10-31T02:57:49;10.30;99.90
35111;DHT22;21290;50.158;8.658;2022-10-31T03:00:16;10.30;99.90
35111;DHT22;21290;50.158;8.658;2022-10-31T03:03:00;10.30;99.90
35111;DHT22;21290;50.158;8.658;2022-10-31T03:08:06;10.20;99.90
35111;DHT22;21290;50.158;8.658;2022-10-31T03:10:35;10.20;99.90
35111;DHT22;21290;50.158;8.658;2022-10-31T03:15:43;10.10;99.90
35111;DHT22;21290;50.158;8.658;2022-10-31T03:18:15;10.20;99.90
35111;DHT22;21290;50.158;8.658;2022-10-31T03:20:51;10.20;99.90
35111;DHT22;21290;50.158;8.658;2022-10-31T03:23:21;10.20;99.90
35111;DHT22;21290;50.158;8.658;2022-10-31T03:25:48;10.20;99.90
35111;DHT22;21290;50.158;8.658;2022-10-31T03:28:15;10.20;99.90
35111;DHT22;21290;50.158;8.658;2022-10-31T03:30:47;10.20;99.90
35111;DHT22;21290;50.158;8.658;2022-10-31T03:33:17;10.20;99.90
35111;DHT22;21290;50.158;8.658;2022-10-31T03:35:45;10.20;99.90
35111;DHT22;21290;50.158;8.658;2022-10-31T03:38:13;10.20;99.90
35111;DHT22;21290;50.158;8.658;2022-10-31T03:40:40;10.20;99.90
35111;DHT22;21290;50.158;8.658;2022-10-31T03:43:14;10.20;99.90
35111;DHT22;21290;50.158;8.658;2022-10-31T03:45:46;10.20;99.90
35111;DHT22;21290;50.158;8.658;2022-10-31T03:48:13;10.30;99.90
35111;DHT22;21290;50.158;8.658;2022-10-31T03:53:14;10.30;99.90
35111;DHT22;21290;50.158;8.658;2022-10-31T03:55:44;10.30;99.90
35111;DHT22;21290;50.158;8.658;2022-10-31T03:58:24;10.30;99.90
35111;DHT22;21290;50.158;8.658;2022-10-31T04:00:54;10.30;99.90
35111;DHT22;21290;50.158;8.658;2022-10-31T04:03:31;10.30;99.90
35111;DHT22;21290;50.158;8.658;2022-10-31T04:06:00;10.30;99.90
35111;DHT22;21290;50.158;8.658;2022-10-31T04:08:29;10.20;99.90
35111;DHT22;21290;50.158;8.658;2022-10-31T04:10:56;10.20;99.90
35111;DHT22;21290;50.158;8.658;2022-10-31T04:13:25;10.20;99.90
35111;DHT22;21290;50.158;8.658;2022-10-31T04:15:53;10.20;99.90
35111;DHT22;21290;50.158;8.658;2022-10-31T04:18:24;10.20;99.90
35111;DHT22;21290;50.158;8.658;2022-10-31T04:20:59;10.20;99.90
35111;DHT22;21290;50.158;8.658;2022-10-31T04:23:26;10.10;99.90
35111;DHT22;21290;50.158;8.658;2022-10-31T04:25:53;10.20;99.90
35111;DHT22;21290;50.158;8.658;2022-10-31T04:28:20;10.20;99.90
35111;DHT22;21290;50.158;8.658;2022-10-31T04:30:47;10.10;99.90
35111;DHT22;21290;50.158;8.658;2022-10-31T04:33:13;10.10;99.90
35111;DHT22;21290;50.158;8.658;2022-10-31T04:35:40;10.10;99.90
35111;DHT22;21290;50.158;8.658;2022-10-31T04:38:06;10.10;99.90
35111;DHT22;21290;50.158;8.658;2022-10-31T04:40:33;10.10;99.90
35111;DHT22;21290;50.158;8.658;2022-10-31T04:42:59;10.10;99.90
35111;DHT22;21290;50.158;8.658;2022-10-31T04:45:26;10.10;99.90
35111;DHT22;21290;50.158;8.658;2022-10-31T04:47:55;10.10;99.90
35111;DHT22;21290;50.158;8.658;2022-10-31T04:50:21;10.00;99.90
35111;DHT22;21290;50.158;8.658;2022-10-31T04:52:48;10.00;99.90
35111;DHT22;21290;50.158;8.658;2022-10-31T04:55:14;10.10;99.90
35111;DHT22;21290;50.158;8.658;2022-10-31T04:57:44;10.00;99.90
35111;DHT22;21290;50.158;8.658;2022-10-31T05:00:11;10.00;99.90
35111;DHT22;21290;50.158;8.658;2022-10-31T05:02:42;10.00;99.90
35111;DHT22;21290;50.158;8.658;2022-10-31T05:05:10;10.00;99.90
35111;DHT22;21290;50.158;8.658;2022-10-31T05:07:40;10.00;99.90
35111;DHT22;21290;50.158;8.658;2022-10-31T05:10:07;10.00;99.90
35111;DHT22;21290;50.158;8.658;2022-10-31T05:12:36;10.00;99.90
35111;DHT22;21290;50.158;8.658;2022-10-31T05:15:03;10.00;99.90
35111;DHT22;21290;50.158;8.658;2022-10-31T05:17:30;10.10;99.90
35111;DHT22;21290;50.158;8.658;2022-10-31T05:19:57;10.10;99.90
35111;DHT22;21290;50.158;8.658;2022-10-31T05:22:23;10.10;99.90
35111;DHT22;21290;50.158;8.658;2022-10-31T05:24:50;10.10;99.90
35111;DHT22;21290;50.158;8.658;2022-10-31T05:27:16;10.10;99.90
35111;DHT22;21290;50.158;8.658;2022-10-31T05:29:43;10.20;99.90
35111;DHT22;21290;50.158;8.658;2022-10-31T05:32:09;10.10;99.90
35111;DHT22;21290;50.158;8.658;2022-10-31T05:34:36;10.10;99.90
35111;DHT22;21290;50.158;8.658;2022-10-31T05:37:02;10.10;99.90
35111;DHT22;21290;50.158;8.658;2022-10-31T05:39:29;10.10;99.90
35111;DHT22;21290;50.158;8.658;2022-10-31T05:41:55;10.20;99.90
35111;DHT22;21290;50.158;8.658;2022-10-31T05:44:21;10.20;99.90
35111;DHT22;21290;50.158;8.658;2022-10-31T05:46:48;10.20;99.90
35111;DHT22;21290;50.158;8.658;2022-10-31T05:49:15;10.20;99.90
35111;DHT22;21290;50.158;8.658;2022-10-31T05:51:43;10.20;99.90
35111;DHT22;21290;50.158;8.658;2022-10-31T05:54:09;10.20;99.90
35111;DHT22;21290;50.158;8.658;2022-10-31T05:56:41;10.30;99.90
35111;DHT22;21290;50.158;8.658;2022-10-31T05:59:07;10.30;99.90
35111;DHT22;21290;50.158;8.658;2022-10-31T06:01:34;10.30;99.90
35111;DHT22;21290;50.158;8.658;2022-10-31T06:04:00;10.30;99.90
35111;DHT22;21290;50.158;8.658;2022-10-31T06:06:27;10.30;99.90
35111;DHT22;21290;50.158;8.658;2022-10-31T06:08:53;10.30;99.90
35111;DHT22;21290;50.158;8.658;2022-10-31T06:11:20;10.30;99.90
35111;DHT22;21290;50.158;8.658;2022-10-31T06:13:46;10.30;99.90
35111;DHT22;21290;50.158;8.658;2022-10-31T06:16:13;10.30;99.90
35111;DHT22;21290;50.158;8.658;2022-10-31T06:18:39;10.30;99.90
35111;DHT22;21290;50.158;8.658;2022-10-31T06:21:06;10.40;99.90
35111;DHT22;21290;50.158;8.658;2022-10-31T06:23:32;10.40;99.90
35111;DHT22;21290;50.158;8.658;2022-10-31T06:25:59;10.40;99.90
35111;DHT22;21290;50.158;8.658;2022-10-31T06:28:25;10.50;99.90
35111;DHT22;21290;50.158;8.658;2022-10-31T06:30:52;10.60;99.90
35111;DHT22;21290;50.158;8.658;2022-10-31T06:33:18;10.70;99.90
35111;DHT22;21290;50.158;8.658;2022-10-31T06:35:45;10.70;99.90
35111;DHT22;21290;50.158;8.658;2022-10-31T06:38:13;10.80;99.90
35111;DHT22;21290;50.158;8.658;2022-10-31T06:40:40;10.80;99.90
35111;DHT22;21290;50.158;8.658;2022-10-31T06:43:06;11.00;99.90
35111;DHT22;21290;50.158;8.658;2022-10-31T06:45:33;11.10;99.90
35111;DHT22;21290;50.158;8.658;2022-10-31T06:48:00;11.30;99.90
35111;DHT22;21290;50.158;8.658;2022-10-31T06:50:42;11.50;99.90
35111;DHT22;21290;50.158;8.658;2022-10-31T06:53:09;11.70;99.90
35111;DHT22;21290;50.158;8.658;2022-10-31T06:55:41;11.90;99.90
35111;DHT22;21290;50.158;8.658;2022-10-31T06:58:08;12.20;99.90
35111;DHT22;21290;50.158;8.658;2022-10-31T07:00:36;12.50;99.90
35111;DHT22;21290;50.158;8.658;2022-10-31T07:03:03;12.80;99.90
35111;DHT22;21290;50.158;8.658;2022-10-31T07:05:30;13.10;99.90
35111;DHT22;21290;50.158;8.658;2022-10-31T07:08:02;13.50;99.90
35111;DHT22;21290;50.158;8.658;2022-10-31T07:10:30;13.90;99.90
35111;DHT22;21290;50.158;8.658;2022-10-31T07:13:03;14.30;99.90
35111;DHT22;21290;50.158;8.658;2022-10-31T07:15:33;15.60;99.90
35111;DHT22;21290;50.158;8.658;2022-10-31T07:18:01;17.10;99.90
35111;DHT22;21290;50.158;8.658;2022-10-31T07:20:27;17.60;99.90
35111;DHT22;21290;50.158;8.658;2022-10-31T07:22:54;17.10;99.90
35111;DHT22;21290;50.158;8.658;2022-10-31T07:25:21;16.40;99.90
35111;DHT22;21290;50.158;8.658;2022-10-31T07:27:47;15.80;99.90
35111;DHT22;21290;50.158;8.658;2022-10-31T07:30:14;15.30;99.90
35111;DHT22;21290;50.158;8.658;2022-10-31T07:32:41;15.00;99.90
35111;DHT22;21290;50.158;8.658;2022-10-31T07:35:09;15.50;99.90
35111;DHT22;21290;50.158;8.658;2022-10-31T07:37:35;16.50;99.90
35111;DHT22;21290;50.158;8.658;2022-10-31T07:40:03;16.90;99.90
35111;DHT22;21290;50.158;8.658;2022-10-31T07:42:34;16.70;99.90
35111;DHT22;21290;50.158;8.658;2022-10-31T07:45:00;16.80;99.90
35111;DHT22;21290;50.158;8.658;2022-10-31T07:47:27;16.90;99.90
35111;DHT22;21290;50.158;8.658;2022-10-31T07:49:53;17.50;99.90
35111;DHT22;21290;50.158;8.658;2022-10-31T07:52:20;18.50;99.90
35111;DHT22;21290;50.158;8.658;2022-10-31T07:54:46;19.30;99.90
35111;DHT22;21290;50.158;8.658;2022-10-31T07:57:13;20.30;99.90
35111;DHT22;21290;50.158;8.658;2022-10-31T07:59:41;21.30;99.90
35111;DHT22;21290;50.158;8.658;2022-10-31T08:02:08;21.90;99.90
35111;DHT22;21290;50.158;8.658;2022-10-31T08:04:36;22.60;99.90
35111;DHT22;21290;50.158;8.658;2022-10-31T08:07:03;23.10;99.90
35111;DHT22;21290;50.158;8.658;2022-10-31T08:09:30;23.70;99.90
35111;DHT22;21290;50.158;8.658;2022-10-31T08:11:57;24.10;98.60
35111;DHT22;21290;50.158;8.658;2022-10-31T08:14:23;24.70;97.60
35111;DHT22;21290;50.158;8.658;2022-10-31T08:16:57;25.40;96.40
35111;DHT22;21290;50.158;8.658;2022-10-31T08:19:23;25.40;95.50
35111;DHT22;21290;50.158;8.658;2022-10-31T08:21:50;25.50;94.80
35111;DHT22;21290;50.158;8.658;2022-10-31T08:24:17;25.20;94.90
35111;DHT22;21290;50.158;8.658;2022-10-31T08:26:44;24.50;95.20
35111;DHT22;21290;50.158;8.658;2022-10-31T08:29:10;23.20;96.60
35111;DHT22;21290;50.158;8.658;2022-10-31T08:31:45;22.50;98.00
35111;DHT22;21290;50.158;8.658;2022-10-31T08:34:11;21.70;99.40
35111;DHT22;21290;50.158;8.658;2022-10-31T08:36:38;20.70;99.90
35111;DHT22;21290;50.158;8.658;2022-10-31T08:39:04;19.70;99.90
35111;DHT22;21290;50.158;8.658;2022-10-31T08:41:31;19.10;99.90
35111;DHT22;21290;50.158;8.658;2022-10-31T08:43:57;18.40;99.90
35111;DHT22;21290;50.158;8.658;2022-10-31T08:46:23;17.90;99.90
35111;DHT22;21290;50.158;8.658;2022-10-31T08:48:50;17.30;99.90
35111;DHT22;21290;50.158;8.658;2022-10-31T08:51:16;16.80;99.90
35111;DHT22;21290;50.158;8.658;2022-10-31T08:53:43;16.50;99.90
35111;DHT22;21290;50.158;8.658;2022-10-31T08:56:09;16.30;99.90
35111;DHT22;21290;50.158;8.658;2022-10-31T08:58:46;16.10;99.90
35111;DHT22;21290;50.158;8.658;2022-10-31T09:01:13;16.00;99.90
35111;DHT22;21290;50.158;8.658;2022-10-31T09:03:39;15.90;99.90
35111;DHT22;21290;50.158;8.658;2022-10-31T09:06:06;15.80;99.90
35111;DHT22;21290;50.158;8.658;2022-10-31T09:08:35;15.90;99.90
35111;DHT22;21290;50.158;8.658;2022-10-31T09:11:02;16.40;99.90
35111;DHT22;21290;50.158;8.658;2022-10-31T09:13:28;17.30;99.90
35111;DHT22;21290;50.158;8.658;2022-10-31T09:15:55;18.70;99.90
35111;DHT22;21290;50.158;8.658;2022-10-31T09:18:22;20.20;99.90
35111;DHT22;21290;50.158;8.658;2022-10-31T09:20:49;21.40;99.90
35111;DHT22;21290;50.158;8.658;2022-10-31T09:23:19;21.80;99.90
35111;DHT22;21290;50.158;8.658;2022-10-31T09:25:47;22.40;99.90
35111;DHT22;21290;50.158;8.658;2022-10-31T09:28:17;22.80;99.90
35111;DHT22;21290;50.158;8.658;2022-10-31T09:30:45;23.30;99.90
35111;DHT22;21290;50.158;8.658;2022-10-31T09:33:12;23.70;99.90
35111;DHT22;21290;50.158;8.658;2022-10-31T09:35:39;24.00;99.40
35111;DHT22;21290;50.158;8.658;2022-10-31T09:38:07;24.40;98.80
35111;DHT22;21290;50.158;8.658;2022-10-31T09:40:38;24.50;98.30
35111;DHT22;21290;50.158;8.658;2022-10-31T09:43:09;25.20;97.40
35111;DHT22;21290;50.158;8.658;2022-10-31T09:48:37;24.90;96.60
35111;DHT22;21290;50.158;8.658;2022-10-31T09:51:20;24.60;97.20
35111;DHT22;21290;50.158;8.658;2022-10-31T09:53:52;24.10;97.90
35111;DHT22;21290;50.158;8.658;2022-10-31T09:56:20;23.90;98.40
35111;DHT22;21290;50.158;8.658;2022-10-31T09:58:49;24.00;98.50
35111;DHT22;21290;50.158;8.658;2022-10-31T10:02:03;24.00;98.50
35111;DHT22;21290;50.158;8.658;2022-10-31T10:06:49;23.60;98.90
35111;DHT22;21290;50.158;8.658;2022-10-31T10:09:17;23.30;99.10
35111;DHT22;21290;50.158;8.658;2022-10-31T10:11:51;23.30;99.60
35111;DHT22;21290;50.158;8.658;2022-10-31T10:22:40;23.60;99.70
35111;DHT22;21290;50.158;8.658;2022-10-31T10:25:14;23.50;99.80
35111;DHT22;21290;50.158;8.658;2022-10-31T10:27:45;23.50;99.90
35111;DHT22;21290;50.158;8.658;2022-10-31T10:30:14;23.60;99.90
35111;DHT22;21290;50.158;8.658;2022-10-31T10:32:55;23.60;99.90
35111;DHT22;21290;50.158;8.658;2022-10-31T10:35:27;23.40;99.90
35111;DHT22;21290;50.158;8.658;2022-10-31T10:37:57;23.30;99.90
35111;DHT22;21290;50.158;8.658;2022-10-31T10:40:27;23.30;99.90
35111;DHT22;21290;50.158;8.658;2022-10-31T10:43:19;23.30;99.90
35111;DHT22;21290;50.158;8.658;2022-10-31T10:45:49;23.50;99.90
35111;DHT22;21290;50.158;8.658;2022-10-31T10:48:58;23.40;99.90
35111;DHT22;21290;50.158;8.658;2022-10-31T10:51:37;23.50;99.90
35111;DHT22;21290;50.158;8.658;2022-10-31T10:57:09;23.50;99.90
35111;DHT22;21290;50.158;8.658;2022-10-31T10:59:37;23.20;99.90
35111;DHT22;21290;50.158;8.658;2022-10-31T11:02:08;23.10;99.90
35111;DHT22;21290;50.158;8.658;2022-10-31T11:04:41;22.90;99.90
35111;DHT22;21290;50.158;8.658;2022-10-31T11:07:10;22.90;99.90
35111;DHT22;21290;50.158;8.658;2022-10-31T11:09:36;22.90;99.90
35111;DHT22;21290;50.158;8.658;2022-10-31T11:12:10;22.90;99.90
35111;DHT22;21290;50.158;8.658;2022-10-31T11:14:42;23.00;99.90
35111;DHT22;21290;50.158;8.658;2022-10-31T11:17:15;23.10;99.90
35111;DHT22;21290;50.158;8.658;2022-10-31T11:19:43;23.40;99.90
35111;DHT22;21290;50.158;8.658;2022-10-31T11:22:16;23.60;99.90
35111;DHT22;21290;50.158;8.658;2022-10-31T11:24:45;23.90;99.90
35111;DHT22;21290;50.158;8.658;2022-10-31T11:27:16;24.20;99.90
35111;DHT22;21290;50.158;8.658;2022-10-31T11:29:46;24.50;99.90
35111;DHT22;21290;50.158;8.658;2022-10-31T11:32:31;24.60;99.90
35111;DHT22;21290;50.158;8.658;2022-10-31T11:34:59;24.80;99.90
35111;DHT22;21290;50.158;8.658;2022-10-31T11:37:31;25.00;99.90
35111;DHT22;21290;50.158;8.658;2022-10-31T11:39:59;25.00;99.90
35111;DHT22;21290;50.158;8.658;2022-10-31T11:42:27;24.80;99.90
35111;DHT22;21290;50.158;8.658;2022-10-31T11:44:55;24.40;99.90
35111;DHT22;21290;50.158;8.658;2022-10-31T11:47:26;24.00;99.90
35111;DHT22;21290;50.158;8.658;2022-10-31T11:49:54;23.60;99.90
35111;DHT22;21290;50.158;8.658;2022-10-31T11:52:25;23.20;99.90
35111;DHT22;21290;50.158;8.658;2022-10-31T11:55:16;22.90;99.90
35111;DHT22;21290;50.158;8.658;2022-10-31T11:57:48;22.80;99.90
35111;DHT22;21290;50.158;8.658;2022-10-31T12:00:21;22.50;99.90
35111;DHT22;21290;50.158;8.658;2022-10-31T12:02:49;22.30;99.90
35111;DHT22;21290;50.158;8.658;2022-10-31T12:05:26;22.20;99.90
35111;DHT22;21290;50.158;8.658;2022-10-31T12:07:59;22.20;99.90
35111;DHT22;21290;50.158;8.658;2022-10-31T12:11:01;22.20;99.90
35111;DHT22;21290;50.158;8.658;2022-10-31T12:13:37;22.20;99.90
35111;DHT22;21290;50.158;8.658;2022-10-31T12:24:10;22.00;99.90
35111;DHT22;21290;50.158;8.658;2022-10-31T12:27:18;22.00;99.90
35111;DHT22;21290;50.158;8.658;2022-10-31T12:29:50;21.90;99.90
35111;DHT22;21290;50.158;8.658;2022-10-31T12:35:21;21.80;99.90
35111;DHT22;21290;50.158;8.658;2022-10-31T12:37:59;21.90;99.90
35111;DHT22;21290;50.158;8.658;2022-10-31T12:43:09;21.90;99.90
35111;DHT22;21290;50.158;8.658;2022-10-31T12:45:45;21.90;99.90
35111;DHT22;21290;50.158;8.658;2022-10-31T12:57:56;22.00;99.90
35111;DHT22;21290;50.158;8.658;2022-10-31T13:00:24;22.00;99.90
35111;DHT22;21290;50.158;8.658;2022-10-31T13:03:14;21.90;99.90
35111;DHT22;21290;50.158;8.658;2022-10-31T13:05:50;21.80;99.90
35111;DHT22;21290;50.158;8.658;2022-10-31T13:08:26;21.70;99.90
35111;DHT22;21290;50.158;8.658;2022-10-31T13:11:02;21.60;99.90
35111;DHT22;21290;50.158;8.658;2022-10-31T13:13:38;21.50;99.90
35111;DHT22;21290;50.158;8.658;2022-10-31T13:16:17;21.40;99.90
35111;DHT22;21290;50.158;8.658;2022-10-31T13:18:58;21.40;99.90
35111;DHT22;21290;50.158;8.658;2022-10-31T13:22:09;21.40;99.90
35111;DHT22;21290;50.158;8.658;2022-10-31T13:24:38;21.40;99.90
35111;DHT22;21290;50.158;8.658;2022-10-31T13:27:57;21.30;99.90
35111;DHT22;21290;50.158;8.658;2022-10-31T13:30:25;21.10;99.90
35111;DHT22;21290;50.158;8.658;2022-10-31T13:35:42;20.80;99.90
35111;DHT22;21290;50.158;8.658;2022-10-31T13:43:31;20.60;99.90
35111;DHT22;21290;50.158;8.658;2022-10-31T13:46:00;20.50;99.90
35111;DHT22;21290;50.158;8.658;2022-10-31T13:48:39;20.40;99.90
35111;DHT22;21290;50.158;8.658;2022-10-31T13:51:08;20.30;99.90
35111;DHT22;21290;50.158;8.658;2022-10-31T13:56:33;20.30;99.90
35111;DHT22;21290;50.158;8.658;2022-10-31T13:59:29;20.30;99.90
35111;DHT22;21290;50.158;8.658;2022-10-31T14:02:53;20.30;99.90
35111;DHT22;21290;50.158;8.658;2022-10-31T14:05:26;20.10;99.90
35111;DHT22;21290;50.158;8.658;2022-10-31T14:07:53;20.00;99.90
35111;DHT22;21290;50.158;8.658;2022-10-31T14:13:04;19.90;99.90
35111;DHT22;21290;50.158;8.658;2022-10-31T14:15:31;19.70;99.90
35111;DHT22;21290;50.158;8.658;2022-10-31T14:18:25;19.60;99.90
35111;DHT22;21290;50.158;8.658;2022-10-31T14:20:54;19.50;99.90
35111;DHT22;21290;50.158;8.658;2022-10-31T14:28:36;19.10;99.90
35111;DHT22;21290;50.158;8.658;2022-10-31T14:31:25;19.00;99.90
35111;DHT22;21290;50.158;8.658;2022-10-31T14:33:59;18.90;99.90
35111;DHT22;21290;50.158;8.658;2022-10-31T14:36:41;18.90;99.90
35111;DHT22;21290;50.158;8.658;2022-10-31T14:39:21;18.80;99.90
35111;DHT22;21290;50.158;8.658;2022-10-31T14:42:00;18.70;99.90
35111;DHT22;21290;50.158;8.658;2022-10-31T14:47:21;18.70;99.90
35111;DHT22;21290;50.158;8.658;2022-10-31T14:49:59;18.80;99.90
35111;DHT22;21290;50.158;8.658;2022-10-31T14:52:29;18.90;99.90
35111;DHT22;21290;50.158;8.658;2022-10-31T14:54:56;19.00;99.90
35111;DHT22;21290;50.158;8.658;2022-10-31T14:57:29;19.10;99.90
35111;DHT22;21290;50.158;8.658;2022-10-31T14:59:58;19.20;99.90
35111;DHT22;21290;50.158;8.658;2022-10-31T15:02:31;19.30;99.90
35111;DHT22;21290;50.158;8.658;2022-10-31T15:05:06;19.30;99.90
35111;DHT22;21290;50.158;8.658;2022-10-31T15:07:33;19.30;99.90
35111;DHT22;21290;50.158;8.658;2022-10-31T15:10:05;19.30;99.90
35111;DHT22;21290;50.158;8.658;2022-10-31T15:12:33;19.30;99.90
35111;DHT22;21290;50.158;8.658;2022-10-31T15:17:46;19.00;99.90
35111;DHT22;21290;50.158;8.658;2022-10-31T15:20:19;18.90;99.90
35111;DHT22;21290;50.158;8.658;2022-10-31T15:22:46;18.60;99.90
35111;DHT22;21290;50.158;8.658;2022-10-31T15:25:17;18.40;99.90
35111;DHT22;21290;50.158;8.658;2022-10-31T15:27:45;18.20;99.90
35111;DHT22;21290;50.158;8.658;2022-10-31T15:30:22;18.00;99.90
35111;DHT22;21290;50.158;8.658;2022-10-31T15:32:49;17.90;99.90
35111;DHT22;21290;50.158;8.658;2022-10-31T15:35:25;17.60;99.90
35111;DHT22;21290;50.158;8.658;2022-10-31T15:37:52;17.50;99.90
35111;DHT22;21290;50.158;8.658;2022-10-31T15:40:19;17.30;99.90
35111;DHT22;21290;50.158;8.658;2022-10-31T15:43:10;17.20;99.90
35111;DHT22;21290;50.158;8.658;2022-10-31T15:45:34;17.10;99.90
35111;DHT22;21290;50.158;8.658;2022-10-31T15:48:01;17.00;99.90
35111;DHT22;21290;50.158;8.658;2022-10-31T15:50:31;17.00;99.90
35111;DHT22;21290;50.158;8.658;2022-10-31T15:52:57;17.00;99.90
35111;DHT22;21290;50.158;8.658;2022-10-31T15:55:27;16.90;99.90
35111;DHT22;21290;50.158;8.658;2022-10-31T15:58:01;16.90;99.90
35111;DHT22;21290;50.158;8.658;2022-10-31T16:00:34;16.90;99.90
35111;DHT22;21290;50.158;8.658;2022-10-31T16:05:44;16.70;99.90
35111;DHT22;21290;50.158;8.658;2022-10-31T16:08:24;16.70;99.90
35111;DHT22;21290;50.158;8.658;2022-10-31T16:10:52;16.60;99.90
35111;DHT22;21290;50.158;8.658;2022-10-31T16:13:20;16.60;99.90
35111;DHT22;21290;50.158;8.658;2022-10-31T16:15:55;16.60;99.90
35111;DHT22;21290;50.158;8.658;2022-10-31T16:18:42;16.50;99.90
35111;DHT22;21290;50.158;8.658;2022-10-31T16:21:09;16.50;99.90
35111;DHT22;21290;50.158;8.658;2022-10-31T16:23:36;16.50;99.90
35111;DHT22;21290;50.158;8.658;2022-10-31T16:26:07;16.40;99.90
35111;DHT22;21290;50.158;8.658;2022-10-31T16:28:35;16.40;99.90
35111;DHT22;21290;50.158;8.658;2022-10-31T16:31:12;16.30;99.90
35111;DHT22;21290;50.158;8.658;2022-10-31T16:33:39;16.20;99.90
35111;DHT22;21290;50.158;8.658;2022-10-31T16:36:28;16.20;99.90
35111;DHT22;21290;50.158;8.658;2022-10-31T16:39:00;16.20;99.90
35111;DHT22;21290;50.158;8.658;2022-10-31T16:41:27;16.10;99.90
35111;DHT22;21290;50.158;8.658;2022-10-31T16:43:54;16.20;99.90
35111;DHT22;21290;50.158;8.658;2022-10-31T16:46:25;16.10;99.90
35111;DHT22;21290;50.158;8.658;2022-10-31T16:48:52;16.10;99.90
35111;DHT22;21290;50.158;8.658;2022-10-31T16:51:19;16.10;99.90
35111;DHT22;21290;50.158;8.658;2022-10-31T16:53:45;16.10;99.90
35111;DHT22;21290;50.158;8.658;2022-10-31T16:56:14;16.00;99.90
35111;DHT22;21290;50.158;8.658;2022-10-31T16:58:41;16.00;99.90
35111;DHT22;21290;50.158;8.658;2022-10-31T17:01:08;16.00;99.90
35111;DHT22;21290;50.158;8.658;2022-10-31T17:03:35;15.90;99.90
35111;DHT22;21290;50.158;8.658;2022-10-31T17:06:01;15.90;99.90
35111;DHT22;21290;50.158;8.658;2022-10-31T17:08:28;15.80;99.90
35111;DHT22;21290;50.158;8.658;2022-10-31T17:10:56;15.80;99.90
35111;DHT22;21290;50.158;8.658;2022-10-31T17:13:27;15.70;99.90
35111;DHT22;21290;50.158;8.658;2022-10-31T17:15:55;15.60;99.90
35111;DHT22;21290;50.158;8.658;2022-10-31T17:18:22;15.50;99.90
35111;DHT22;21290;50.158;8.658;2022-10-31T17:20:56;15.40;99.90
35111;DHT22;21290;50.158;8.658;2022-10-31T17:23:25;15.40;99.90